Latest Weather Observations for Montague Island

IDN60901

Issued at 7:51 am EST Saturday 4 July 2015 (issued every 10 minutes, with the page automatically refreshed every 10 minutes)

About weather observations | Map of Canberra area stations | Latest observations for Canberra area | Other Formats
Station Details ID: 069017 Name: MONTAGUE ISLAND LIGHTHOUSE Lat: -36.25 Lon: 150.23 Height: 52.0 m
Data from the previous 72 hours. | See also: Recent months at Montague Island
Date/Time
EST
Tmp

°C
App
Tmp
°C
Dew
Point
°C
Rel
Hum
%
Delta-T

°C
Wind Press
QNH
hPa
Press
MSL
hPa
Rain
since
9 am
mm
Dir
 
Spd
km/h
Gust
km/h
Spd
kts
Gust
kts
04/07:30am 9.7 3.5 4.5 70 2.3 SW 26 33 14 18 1021.2 1021.2 0.0
04/07:00am 9.7 3.5 4.3 69 2.4 SW 26 30 14 16 1021.3 1021.3 0.0
04/06:30am 9.6 3.8 4.6 71 2.2 SW 24 30 13 16 1021.1 1021.1 0.0
04/06:00am 9.6 5.0 5.6 76 1.8 SW 19 24 10 13 1020.9 1020.9 0.0
04/05:30am 9.3 5.3 5.1 75 1.9 SW 15 22 8 12 1020.5 1020.5 0.0
04/05:00am 9.2 5.3 5.2 76 1.8 SSW 15 20 8 11 1020.5 1020.5 0.0
04/04:30am 9.2 5.3 5.2 76 1.8 SW 15 19 8 10 1020.8 1020.8 0.0
04/04:00am 9.3 5.1 5.5 77 1.7 SSW 17 20 9 11 1020.8 1020.8 0.0
04/03:30am 9.3 5.3 5.1 75 1.9 SSW 15 19 8 10 1021.1 1021.1 0.0
04/03:00am 9.4 6.5 4.8 73 2.1 SW 9 13 5 7 1021.5 1021.5 0.0
04/02:30am 9.5 6.7 5.3 75 1.9 WSW 9 13 5 7 1021.8 1021.8 0.0
04/02:00am 9.5 6.0 5.3 75 1.9 WSW 13 17 7 9 1021.9 1021.9 0.0
04/01:30am 9.6 6.5 5.4 75 1.9 W 11 15 6 8 1022.1 1022.1 0.0
04/01:00am 9.8 7.4 5.4 74 2.0 WNW 7 11 4 6 1022.3 1022.3 0.0
04/12:30am 9.9 7.0 2.7 61 3.1 W 7 11 4 6 1022.8 1022.8 0.0
04/12:00am 10.1 7.0 3.6 64 2.8 W 9 15 5 8 1023.5 1023.5 0.0
 
Date/Time
EST
Tmp

°C
App
Tmp
°C
Dew
Point
°C
Rel
Hum
%
Delta-T

°C
Wind Press
QNH
hPa
Press
MSL
hPa
Rain
since
9 am
mm
Dir
 
Spd
km/h
Gust
km/h
Spd
kts
Gust
kts
03/11:30pm 9.9 6.8 3.4 64 2.8 SW 9 13 5 7 1023.8 1023.8 0.0
03/11:00pm 10.2 6.7 3.5 63 2.9 W 11 17 6 9 1024.1 1024.1 0.0
03/10:30pm 10.1 6.6 3.4 63 2.9 W 11 17 6 9 1024.2 1024.2 0.0
03/10:00pm 10.2 6.4 3.7 64 2.8 W 13 19 7 10 1024.3 1024.3 0.0
03/09:30pm 10.4 6.6 3.9 64 2.9 W 13 19 7 10 1024.5 1024.5 0.0
03/09:00pm 10.6 6.9 4.7 67 2.6 W 13 19 7 10 1024.5 1024.5 0.0
03/08:30pm 10.9 6.8 4.4 64 2.9 W 15 19 8 10 1024.5 1024.5 0.0
03/08:00pm 11.3 7.2 4.1 61 3.2 WNW 15 19 8 10 1024.6 1024.6 0.0
03/07:30pm 11.4 8.8 3.4 58 3.5 NW 6 11 3 6 1024.6 1024.6 0.0
03/07:00pm 11.2 8.8 2.2 54 3.8 NNE 4 6 2 3 1024.6 1024.6 0.0
03/06:30pm 11.1 9.4 1.9 53 3.9 CALM 0 2 0 1 1024.6 1024.6 0.0
03/06:00pm 11.4 9.3 1.9 52 4.0 NW 2 4 1 2 1024.6 1024.6 0.0
03/05:30pm 11.2 8.7 1.7 52 4.0 WNW 4 6 2 3 1024.5 1024.5 0.0
03/05:00pm 11.2 8.7 1.5 51 4.1 SW 4 7 2 4 1024.3 1024.3 0.0
03/04:30pm 11.4 8.6 1.9 52 4.1 S 6 9 3 5 1024.3 1024.3 0.0
03/04:00pm 12.0 8.6 1.9 50 4.3 WSW 9 17 5 9 1024.4 1024.4 0.0
03/03:30pm 12.4 9.1 2.6 51 4.3 SSW 9 15 5 8 1024.3 1024.3 0.0
03/03:00pm 12.4 8.6 2.0 49 4.5 SSW 11 19 6 10 1024.1 1024.1 0.0
03/02:30pm 13.0 8.2 2.8 50 4.5 SW 17 26 9 14 1024.2 1024.2 0.0
03/02:00pm 13.3 8.0 3.1 50 4.5 SW 20 26 11 14 1024.4 1024.4 0.0
03/01:30pm 13.1 7.7 2.6 49 4.6 SW 20 28 11 15 1024.8 1024.8 0.0
03/01:00pm 13.1 7.5 3.2 51 4.4 WSW 22 33 12 18 1025.1 1025.1 0.0
03/12:30pm 12.6 6.5 2.7 51 4.3 SW 24 33 13 18 1025.5 1025.5 0.0
03/12:00pm 12.6 6.1 2.5 50 4.4 WSW 26 37 14 20 1025.8 1025.8 0.0
03/11:30am 12.3 4.6 2.2 50 4.4 WSW 32 43 17 23 1026.2 1026.2 0.0
03/11:00am 12.2 5.7 2.4 51 4.2 WSW 26 37 14 20 1026.6 1026.6 0.0
03/10:30am 11.7 5.8 1.9 51 4.2 WSW 22 30 12 16 1027.0 1027.0 0.0
03/10:00am 11.3 6.0 1.8 52 4.0 W 19 26 10 14 1027.2 1027.2 0.0
03/09:30am 10.6 5.1 1.9 55 3.7 WSW 20 28 11 15 1027.2 1027.2 0.0
03/09:00am 10.1 4.7 2.5 59 3.2 W 20 24 11 13 1026.9 1026.9 1.6
03/08:30am 9.4 4.1 2.9 64 2.8 W 20 28 11 15 1026.8 1026.8 1.6
03/08:00am 9.1 3.2 1.8 60 3.0 WSW 22 28 12 15 1026.4 1026.4 1.6
03/07:30am 8.4 2.6 2.4 66 2.5 WSW 22 28 12 15 1026.2 1026.2 1.6
03/07:00am 8.4 3.0 2.2 65 2.6 SW 20 28 11 15 1025.7 1025.7 1.6
03/06:30am 8.2 3.3 2.2 66 2.5 WSW 17 20 9 11 1025.3 1025.3 1.6
03/06:00am 8.6 2.9 2.6 66 2.5 WSW 22 28 12 15 1025.0 1025.0 1.6
03/05:30am 8.8 2.4 3.0 67 2.5 SW 26 37 14 20 1024.6 1024.6 1.6
03/05:00am 9.2 2.0 2.8 64 2.7 SW 30 39 16 21 1024.2 1024.2 1.6
03/04:30am 9.4 1.6 2.9 64 2.8 SW 33 43 18 23 1024.1 1024.1 1.6
03/04:00am 9.1 1.6 1.5 59 3.1 WSW 30 43 16 23 1024.1 1024.1 1.6
03/03:30am 9.3 1.3 1.7 59 3.2 WSW 33 43 18 23 1024.0 1024.0 1.6
03/03:00am 9.2 2.9 1.6 59 3.1 WSW 24 32 13 17 1024.1 1024.1 1.6
03/02:30am 8.8 2.9 1.9 62 2.9 WSW 22 30 12 16 1024.2 1024.2 1.6
03/02:00am 8.7 3.5 2.5 65 2.6 W 19 24 10 13 1024.2 1024.2 1.6
03/01:30am 9.3 3.9 2.2 61 3.0 W 20 30 11 16 1024.1 1024.1 1.6
03/01:00am 9.6 1.6 1.5 57 3.3 SW 33 41 18 22 1023.8 1023.8 1.6
03/12:30am 9.8 1.5 2.2 59 3.2 WSW 35 46 19 25 1023.8 1023.8 1.6
03/12:00am 9.6 0.6 2.5 61 3.0 WSW 39 50 21 27 1024.0 1024.0 1.6
 
Date/Time
EST
Tmp

°C
App
Tmp
°C
Dew
Point
°C
Rel
Hum
%
Delta-T

°C
Wind Press
QNH
hPa
Press
MSL
hPa
Rain
since
9 am
mm
Dir
 
Spd
km/h
Gust
km/h
Spd
kts
Gust
kts
02/11:30pm 9.7 -0.3 2.1 59 3.2 WSW 44 56 24 30 1024.1 1024.1 1.6
02/11:00pm 9.6 -0.2 2.2 60 3.1 WSW 43 52 23 28 1023.9 1023.9 1.6
02/10:30pm 9.6 1.3 2.2 60 3.1 WSW 35 46 19 25 1023.5 1023.5 1.6
02/10:00pm 9.8 0.4 2.6 61 3.1 WSW 41 50 22 27 1023.3 1023.3 1.6
02/09:30pm 9.6 -0.4 2.2 60 3.1 WSW 44 54 24 29 1023.0 1023.0 1.6
02/09:00pm 10.0 -0.5 3.5 64 2.8 WSW 48 61 26 33 1022.7 1022.7 1.6
02/08:30pm 10.0 -1.3 3.5 64 2.8 SW 52 67 28 36 1022.1 1022.1 1.6
02/08:00pm 9.9 -1.5 3.0 62 3.0 WSW 52 65 28 35 1021.7 1021.7 1.6
02/07:30pm 10.0 -1.1 2.6 60 3.2 SW 50 63 27 34 1021.6 1021.6 1.6
02/07:00pm 10.0 0.7 3.1 62 3.0 SW 41 54 22 29 1021.5 1021.5 1.6
02/06:30pm 9.8 0.8 2.4 60 3.1 SW 39 50 21 27 1020.8 1020.8 1.6
02/06:00pm 10.0 -0.4 2.1 58 3.3 SW 46 61 25 33 1020.1 1020.1 1.6
02/05:30pm 10.0 -1.5 2.1 58 3.3 SW 52 63 28 34 1019.3 1019.3 1.6
02/05:00pm 10.2 -1.1 3.7 64 2.9 WSW 52 67 28 36 1018.3 1018.3 1.6
02/04:40pm 10.0 -0.8 4.0 66 2.7 SW 50 69 27 37 1018.1 1018.1 1.6
02/04:30pm 10.1 -1.0 4.3 67 2.6 SW 52 63 28 34 1017.7 1017.7 1.6
02/04:00pm 9.8 -2.3 4.2 68 2.5 SW 57 69 31 37 1017.0 1017.0 1.6
02/03:40pm 9.7 -1.6 5.3 74 2.0 SW 54 72 29 39 1016.9 1016.9 1.6
02/03:30pm 9.5 -3.2 5.3 75 1.9 SW 61 74 33 40 1016.6 1016.6 1.6
02/03:12pm 9.3 -4.6 6.7 84 1.2 SW 69 89 37 48 1017.0 1017.0 1.6
02/03:00pm 9.1 -6.9 6.7 85 1.1 SW 80 96 43 52 1016.9 1016.9 1.6
02/02:46pm 9.1 -8.5 6.9 86 1.0 SW 89 107 48 58 1016.2 1016.2 1.6
02/02:30pm 9.4 -6.4 7.3 87 1.0 SSW 80 111 43 60 1014.2 1014.2 1.2
02/02:26pm 10.1 -4.2 7.3 83 1.3 SSW 72 104 39 56 1013.5 1013.5 0.6
02/02:20pm 12.2 2.2 7.9 75 2.1 SSE 50 91 27 49 1013.7 1013.7 0.0
02/02:18pm 12.8 4.2 8.1 73 2.3 SSE 43 83 23 45 1013.8 1013.8 0.0
02/02:17pm 13.4 5.7 8.7 73 2.4 SSE 39 78 21 42 1014.0 1014.0 0.0
02/02:14pm 13.4 7.4 8.7 73 2.4 SSE 30 48 16 26 1014.2 1014.2 0.0
02/02:12pm 13.6 8.8 8.9 73 2.4 SE 24 43 13 23 1014.2 1014.2 0.0
02/02:00pm 14.4 11.9 6.7 60 3.7 SSW 9 15 5 8 1014.4 1014.4 0.0
02/01:30pm 15.1 13.3 8.1 63 3.5 WNW 7 15 4 8 1014.4 1014.4 0.0
02/01:04pm 13.0 5.9 6.6 65 3.1 W 33 48 18 26 1014.7 1014.7 0.0
02/01:00pm 13.2 5.1 7.0 66 3.0 WSW 39 48 21 26 1014.8 1014.8 0.0
02/12:52pm 13.6 5.5 6.9 64 3.3 WSW 39 50 21 27 1014.8 1014.8 0.0
02/12:31pm 15.1 10.1 4.5 49 4.9 SW 20 46 11 25 1014.6 1014.6 0.0
02/12:30pm 15.2 10.6 5.4 52 4.7 SW 19 39 10 21 1014.8 1014.8 0.0
02/12:00pm 15.6 11.4 4.0 46 5.4 W 15 20 8 11 1015.1 1015.1 0.0
02/11:30am 16.5 10.7 4.5 45 5.7 W 24 32 13 17 1015.8 1015.8 0.0
02/11:00am 15.5 12.4 5.4 51 4.8 NNW 11 20 6 11 1016.5 1016.5 0.0
02/10:30am 14.8 10.4 4.5 50 4.8 NW 17 26 9 14 1016.5 1016.5 0.0
02/10:00am 14.4 9.4 3.8 49 4.8 WNW 19 26 10 14 1016.4 1016.4 0.0
02/09:30am 13.7 7.6 2.9 48 4.8 WNW 24 35 13 19 1016.5 1016.5 0.0
02/09:00am 13.3 6.1 2.8 49 4.6 WNW 30 43 16 23 1016.4 1016.4 0.0
02/08:30am 12.8 5.1 3.2 52 4.3 WNW 33 43 18 23 1016.3 1016.3 0.0
02/08:00am 11.9 4.6 2.6 53 4.0 WNW 30 41 16 22 1016.3 1016.3 0.0
02/07:30am 11.6 5.5 2.6 54 3.9 WNW 24 32 13 17 1016.7 1016.7 0.0
02/07:00am 11.4 5.6 2.2 53 3.9 WNW 22 32 12 17 1016.6 1016.6 0.0
02/06:30am 11.6 5.0 1.8 51 4.2 WNW 26 35 14 19 1016.7 1016.7 0.0
02/06:00am 11.4 2.3 1.9 52 4.0 WNW 39 50 21 27 1016.8 1016.8 0.0
02/05:30am 11.2 1.3 1.7 52 4.0 WNW 43 50 23 27 1016.5 1016.5 0.0
02/05:00am 10.9 1.3 1.4 52 4.0 W 41 48 22 26 1016.7 1016.7 0.0
02/04:30am 11.0 2.7 2.1 54 3.8 W 35 44 19 24 1017.0 1017.0 0.0
02/04:00am 10.9 3.6 2.2 55 3.7 WNW 30 41 16 22 1017.4 1017.4 0.0
02/03:30am 10.6 3.8 3.2 60 3.2 WNW 28 35 15 19 1018.1 1018.1 0.0
02/03:00am 10.3 3.8 2.7 59 3.3 W 26 35 14 19 1018.5 1018.5 0.0
02/02:30am 10.0 3.5 2.8 61 3.1 W 26 32 14 17 1019.0 1019.0 0.0
02/02:00am 10.0 3.1 2.6 60 3.2 W 28 33 15 18 1019.2 1019.2 0.0
02/01:30am 10.2 4.4 4.4 67 2.6 W 24 32 13 17 1019.1 1019.1 0.0
02/01:00am 10.2 4.8 4.6 68 2.5 W 22 26 12 14 1019.4 1019.4 0.0
02/12:30am 10.8 4.4 5.3 69 2.5 WSW 28 35 15 19 1019.8 1019.8 0.0
02/12:00am 10.5 5.3 5.5 71 2.3 W 22 35 12 19 1020.1 1020.1 0.0
 
Date/Time
EST
Tmp

°C
App
Tmp
°C
Dew
Point
°C
Rel
Hum
%
Delta-T

°C
Wind Press
QNH
hPa
Press
MSL
hPa
Rain
since
9 am
mm
Dir
 
Spd
km/h
Gust
km/h
Spd
kts
Gust
kts
01/11:30pm 11.4 5.4 5.1 65 2.9 WSW 26 39 14 21 1020.2 1020.2 0.0
01/11:00pm 11.3 6.8 6.2 71 2.4 WSW 19 24 10 13 1020.4 1020.4 0.0
01/10:30pm 11.6 8.1 7.3 75 2.1 WSW 15 17 8 9 1020.4 1020.4 0.0
01/10:00pm 11.8 9.4 6.9 72 2.3 W 9 11 5 6 1020.2 1020.2 0.0
01/09:30pm 12.1 8.9 7.0 71 2.5 WNW 13 15 7 8 1020.9 1020.9 0.0
01/09:00pm 12.4 10.0 7.1 70 2.5 NW 9 15 5 8 1020.9 1020.9 0.0
01/08:30pm 12.6 9.6 7.5 71 2.5 WNW 13 19 7 10 1021.2 1021.2 0.0
01/08:00pm 12.9 9.6 8.2 73 2.3 W 15 19 8 10 1021.4 1021.4 0.0
01/07:30pm 13.6 9.9 6.2 61 3.5 N 15 22 8 12 1021.0 1021.0 0.0
01/07:00pm 13.7 9.9 5.8 59 3.7 N 15 22 8 12 1021.0 1021.0 0.0
01/06:30pm 13.4 9.6 5.6 59 3.7 N 15 20 8 11 1021.3 1021.3 0.0
01/06:00pm 13.4 9.4 5.1 57 3.9 N 15 19 8 10 1021.3 1021.3 0.0
01/05:30pm 13.4 10.2 5.3 58 3.8 N 11 17 6 9 1021.3 1021.3 0.0
01/05:00pm 13.8 10.6 5.2 56 4.0 NNE 11 15 6 8 1021.3 1021.3 0.0
01/04:30pm 13.8 10.5 4.7 54 4.2 NNE 11 15 6 8 1021.5 1021.5 0.0
01/04:00pm 14.0 11.3 5.6 57 4.0 NNE 9 15 5 8 1021.6 1021.6 0.0
01/03:30pm 14.8 12.5 5.6 54 4.4 N 7 9 4 5 1021.7 1021.7 0.0
01/03:00pm 15.1 12.8 5.0 51 4.7 N 6 9 3 5 1022.0 1022.0 0.0
01/02:30pm 15.4 13.1 4.8 49 5.0 NNW 6 9 3 5 1022.1 1022.1 0.0
01/02:00pm 16.1 13.6 4.8 47 5.3 WNW 7 13 4 7 1022.5 1022.5 0.0
01/01:30pm 15.9 12.8 3.7 44 5.6 WNW 9 15 5 8 1022.8 1022.8 0.0
01/01:00pm 16.0 12.7 4.7 47 5.3 WNW 11 15 6 8 1023.3 1023.3 0.0
01/12:30pm 15.8 13.5 5.7 51 4.9 W 7 11 4 6 1023.8 1023.8 0.0
01/12:00pm 15.4 13.2 6.2 54 4.4 W 7 11 4 6 1024.3 1024.3 0.0
01/11:30am 14.7 12.9 5.5 54 4.4 WNW 4 7 2 4 1025.1 1025.1 0.0
01/11:00am 13.8 11.7 5.7 58 3.8 W 6 9 3 5 1025.6 1025.6 0.0
01/10:30am 13.9 11.2 5.8 58 3.8 W 9 13 5 7 1026.1 1026.1 0.0
01/10:00am 13.2 10.6 6.1 62 3.4 WNW 9 13 5 7 1026.2 1026.2 0.0
01/09:30am 11.7 8.2 5.3 65 3.0 WNW 13 17 7 9 1026.4 1026.4 0.0
01/09:00am 11.9 8.5 6.0 67 2.8 W 13 19 7 10 1026.1 1026.1 0.0
01/08:30am 11.0 7.9 5.5 69 2.5 WNW 11 13 6 7 1026.1 1026.1 0.0
01/08:00am 10.4 7.4 6.0 74 2.0 W 11 13 6 7 1025.8 1025.8 0.0

Latest Capital City Observations: Canberra | Sydney | Melbourne | Brisbane | Adelaide | Perth | Hobart | Darwin

Other Formats:

Comma delimited format used in spreadsheet applications
http://www.bom.gov.au/fwo/IDN60903/IDN60903.94939.axf

JavaScript Object Notation format (JSON) in row-major order
http://www.bom.gov.au/fwo/IDN60903/IDN60903.94939.json